Time;durP1;ratioP1;P1;durP2;ratioP2;P2;SDS_P1;SDS_P2;PMS_P1;PMS_P2;Temp;Humidity;BMP_temperature;BMP_pressure;BME280_temperature;BME280_humidity;BME280_pressure;Samples;Min_cycle;Max_cycle;Signal;HPM_P1;HPM_P2
2021/09/10 00:00:40;624386.00;2.08;1076.35;64191.00;0.21;111.72;;;;;23.70;1.00;;;;;;2586320;55;1355;-88
2021/09/10 00:03:07;974941.00;3.25;1688.14;45001.00;0.15;78.54;;;;;23.60;1.00;;;;;;2586338;55;1338;-88
2021/09/10 00:05:35;685084.00;2.28;1181.38;53208.00;0.18;92.73;;;;;23.50;1.00;;;;;;2586259;55;1061;-88
2021/09/10 00:08:02;706346.00;2.35;1218.24;40991.00;0.14;71.60;;;;;23.30;1.00;;;;;;2586359;55;1088;-88
2021/09/10 00:10:31;612655.00;2.04;1056.08;57793.00;0.19;100.66;;;;;23.50;1.00;;;;;;2586336;55;1369;-88
2021/09/10 00:12:58;751307.00;2.50;1296.33;37959.00;0.13;66.36;;;;;23.50;1.00;;;;;;2586266;55;1902;-88
2021/09/10 00:15:36;559803.00;1.87;964.86;20473.00;0.07;36.09;;;;;23.50;1.00;;;;;;2586366;55;1100;-87
2021/09/10 00:18:03;237272.00;0.79;410.06;0.00;0.00;0.62;;;;;23.20;1.00;;;;;;2586417;55;959;-88
2021/09/10 00:20:30;185077.00;0.62;320.23;0.00;0.00;0.62;;;;;23.00;1.00;;;;;;2588542;55;1351;-88
2021/09/10 00:22:58;116378.00;0.39;201.83;0.00;0.00;0.62;;;;;23.10;1.00;;;;;;2586288;55;1073;-88
2021/09/10 00:25:25;58679.00;0.20;102.19;0.00;0.00;0.62;;;;;23.40;1.00;;;;;;2586316;55;1104;-89
2021/09/10 00:27:52;131126.00;0.44;227.27;0.00;0.00;0.62;;;;;23.70;1.00;;;;;;2586196;55;1260;-88
2021/09/10 00:30:19;157708.00;0.53;273.09;0.00;0.00;0.62;;;;;23.70;1.00;;;;;;2586171;55;1349;-88
2021/09/10 00:32:46;435244.00;1.45;750.40;80246.00;0.27;139.46;;;;;23.40;1.00;;;;;;2586265;55;1945;-88
2021/09/10 00:35:13;181444.00;0.60;313.98;0.00;0.00;0.62;;;;;23.40;1.00;;;;;;2586279;55;1043;-88
2021/09/10 00:37:40;213757.00;0.71;369.60;0.00;0.00;0.62;;;;;23.40;1.00;;;;;;2586266;55;1063;-88
2021/09/10 00:40:10;262960.00;0.88;454.24;0.00;0.00;0.62;;;;;23.20;1.00;;;;;;2588494;55;1342;-88
2021/09/10 00:42:37;472478.00;1.57;814.45;41900.00;0.14;73.18;;;;;23.40;1.00;;;;;;2586325;55;1037;-87
2021/09/10 00:45:05;136155.00;0.45;235.94;0.00;0.00;0.62;;;;;23.40;1.00;;;;;;2588482;55;967;-89
2021/09/10 00:47:33;288886.00;0.96;498.81;0.00;0.00;0.62;;;;;23.50;1.00;;;;;;2586281;55;1119;-89
2021/09/10 00:50:00;148237.00;0.49;256.77;0.00;0.00;0.62;;;;;23.40;1.00;;;;;;2588374;55;1500;-89
2021/09/10 00:52:27;208375.00;0.69;360.34;0.00;0.00;0.62;;;;;23.60;1.00;;;;;;2586253;55;1949;-86
2021/09/10 00:54:55;315882.00;1.05;545.22;0.00;0.00;0.62;;;;;23.80;1.00;;;;;;2586292;55;1039;-88
2021/09/10 00:57:23;120715.00;0.40;209.32;0.00;0.00;0.62;;;;;23.80;1.00;;;;;;2586281;55;1114;-87
2021/09/10 00:59:50;229535.00;0.77;396.75;0.00;0.00;0.62;;;;;23.90;1.00;;;;;;2588359;55;1576;-88
2021/09/10 01:02:19;83713.00;0.28;145.45;0.00;0.00;0.62;;;;;24.00;1.00;;;;;;2586274;55;1014;-86
2021/09/10 01:04:46;211057.00;0.70;364.95;0.00;0.00;0.62;;;;;23.60;1.00;;;;;;2586274;55;1033;-89
2021/09/10 01:07:14;207732.00;0.69;359.23;0.00;0.00;0.62;;;;;23.20;1.00;;;;;;2586283;55;1074;-88
2021/09/10 01:09:42;145013.00;0.48;251.21;0.00;0.00;0.62;;;;;23.00;1.00;;;;;;2588422;55;1277;-89
2021/09/10 01:12:10;449226.00;1.50;774.45;0.00;0.00;0.62;;;;;23.00;1.00;;;;;;2588417;55;1961;-88
2021/09/10 01:14:39;151478.00;0.50;262.35;0.00;0.00;0.62;;;;;22.80;1.00;;;;;;2588440;55;985;-89
2021/09/10 01:17:06;158655.00;0.53;274.72;0.00;0.00;0.62;;;;;22.50;1.00;;;;;;2588391;55;1512;-88
2021/09/10 01:19:36;120733.00;0.40;209.35;0.00;0.00;0.62;;;;;22.40;1.00;;;;;;2586256;55;1279;-89
2021/09/10 01:22:06;335736.00;1.12;579.34;0.00;0.00;0.62;;;;;22.50;1.00;;;;;;2586287;55;1144;-89
2021/09/10 01:24:38;340054.00;1.13;586.77;0.00;0.00;0.62;;;;;22.60;1.00;;;;;;2588487;55;925;-88
2021/09/10 01:27:06;319820.00;1.07;551.99;0.00;0.00;0.62;;;;;22.70;1.00;;;;;;2586264;55;1027;-87
2021/09/10 01:29:35;188878.00;0.63;326.78;0.00;0.00;0.62;;;;;22.80;1.00;;;;;;2586168;55;1326;-87
2021/09/10 01:32:02;337283.00;1.12;582.00;0.00;0.00;0.62;;;;;22.60;1.00;;;;;;2588403;55;1943;-87
2021/09/10 01:34:29;257196.00;0.86;444.33;0.00;0.00;0.62;;;;;22.20;1.00;;;;;;2586199;55;1108;-87
2021/09/10 01:36:56;346748.00;1.16;598.27;0.00;0.00;0.62;;;;;22.00;1.00;;;;;;2588330;55;1569;-88
2021/09/10 01:39:23;140194.00;0.47;242.91;0.00;0.00;0.62;;;;;22.00;1.00;;;;;;2586199;55;1286;-86
2021/09/10 01:41:51;193963.00;0.65;335.53;0.00;0.00;0.62;;;;;22.10;1.00;;;;;;2586224;55;1029;-87
2021/09/10 01:44:18;196572.00;0.66;340.02;0.00;0.00;0.62;;;;;21.70;1.00;;;;;;2588455;55;963;-87
2021/09/10 01:46:45;153236.00;0.51;265.38;0.00;0.00;0.62;;;;;21.60;1.00;;;;;;2588344;55;1528;-87
2021/09/10 01:49:12;226861.00;0.76;392.15;0.00;0.00;0.62;;;;;21.70;1.00;;;;;;2586144;55;1258;-87
2021/09/10 01:51:39;346843.00;1.16;598.44;59844.00;0.20;104.21;;;;;21.60;1.00;;;;;;2588394;55;922;-87
2021/09/10 01:54:06;271330.00;0.90;468.63;0.00;0.00;0.62;;;;;21.50;1.00;;;;;;2588367;55;1915;-87
2021/09/10 01:56:33;228254.00;0.76;394.54;0.00;0.00;0.62;;;;;21.70;1.00;;;;;;2586187;55;1057;-87
2021/09/10 01:59:01;283320.00;0.94;489.25;0.00;0.00;0.62;;;;;21.50;1.00;;;;;;2586148;55;1057;-87
2021/09/10 02:01:30;357648.00;1.19;617.01;0.00;0.00;0.62;;;;;21.00;1.00;;;;;;2586130;55;1262;-87
2021/09/10 02:03:58;365441.00;1.22;630.40;0.00;0.00;0.62;;;;;20.90;1.00;;;;;;2586115;55;972;-87
2021/09/10 02:06:25;299404.00;1.00;516.90;0.00;0.00;0.62;;;;;20.60;1.00;;;;;;2588327;55;964;-87
2021/09/10 02:08:52;358374.00;1.19;618.25;7614.00;0.03;13.82;;;;;20.60;1.00;;;;;;2586151;55;1100;-88
2021/09/10 02:11:19;262610.00;0.88;453.64;0.00;0.00;0.62;;;;;20.70;1.00;;;;;;2586075;55;1331;-88
2021/09/10 02:13:46;209127.00;0.70;361.63;0.00;0.00;0.62;;;;;20.80;1.00;;;;;;2588298;55;1896;-88
2021/09/10 02:16:15;252430.00;0.84;436.13;0.00;0.00;0.62;;;;;21.00;1.00;;;;;;2586104;55;1145;-88
2021/09/10 02:18:43;177647.00;0.59;307.44;0.00;0.00;0.62;;;;;20.90;1.00;;;;;;2586141;55;1093;-88
2021/09/10 02:21:10;208634.00;0.70;360.78;0.00;0.00;0.62;;;;;21.20;1.00;;;;;;2586090;55;1276;-88
2021/09/10 02:23:37;214898.00;0.72;371.56;0.00;0.00;0.62;;;;;21.00;1.00;;;;;;2586102;55;1042;-87
2021/09/10 02:26:04;259979.00;0.87;449.11;0.00;0.00;0.62;;;;;21.20;1.00;;;;;;2586134;55;1153;-88
2021/09/10 02:28:31;257329.00;0.86;444.56;13873.00;0.05;24.66;;;;;21.40;1.00;;;;;;2586284;55;1096;-88
2021/09/10 02:30:58;372788.00;1.24;643.03;67557.00;0.23;117.54;;;;;21.30;1.00;;;;;;2586398;55;1413;-88
2021/09/10 02:33:27;159152.00;0.53;275.58;0.00;0.00;0.62;;;;;21.40;1.00;;;;;;2586375;55;1945;-88
2021/09/10 02:35:54;287415.00;0.96;496.29;68806.00;0.23;119.70;;;;;21.50;1.00;;;;;;2586414;55;959;-88
2021/09/10 02:38:21;256070.00;0.85;442.39;0.00;0.00;0.62;;;;;21.60;1.00;;;;;;2586435;55;1205;-87
2021/09/10 02:40:48;413861.00;1.38;713.64;0.00;0.00;0.62;;;;;21.60;1.00;;;;;;2586356;55;1346;-88
2021/09/10 02:43:18;378738.00;1.26;653.26;4974.00;0.02;9.24;;;;;21.50;1.00;;;;;;2586451;55;1022;-88
2021/09/10 02:45:47;98999.00;0.33;171.84;0.00;0.00;0.62;;;;;21.30;1.00;;;;;;2586397;55;1132;-87
2021/09/10 02:48:14;76289.00;0.25;132.63;0.00;0.00;0.62;;;;;21.30;1.00;;;;;;2588570;55;1132;-88
2021/09/10 02:50:42;184040.00;0.61;318.45;0.00;0.00;0.62;;;;;21.20;1.00;;;;;;2586332;55;1305;-87
2021/09/10 02:53:09;169705.00;0.57;293.76;0.00;0.00;0.62;;;;;21.40;1.00;;;;;;2586309;55;1905;-88
2021/09/10 02:55:36;328658.00;1.10;567.18;84641.00;0.28;147.05;;;;;21.60;1.00;;;;;;2586262;55;1100;-88
2021/09/10 02:58:04;228020.00;0.76;394.14;0.00;0.00;0.62;;;;;21.50;1.00;;;;;;2586335;55;1078;-87
2021/09/10 03:00:36;214836.00;0.72;371.46;0.00;0.00;0.62;;;;;21.40;1.00;;;;;;2586327;55;1341;-88
2021/09/10 03:03:06;166970.00;0.56;289.05;0.00;0.00;0.62;;;;;21.20;1.00;;;;;;2588492;55;1614;-88
2021/09/10 03:05:33;283704.00;0.95;489.91;0.00;0.00;0.62;;;;;21.10;1.00;;;;;;2586360;55;1083;-88
2021/09/10 03:08:02;334324.00;1.11;576.92;0.00;0.00;0.62;;;;;21.30;1.00;;;;;;2588574;55;995;-88
2021/09/10 03:10:29;236570.00;0.79;408.85;0.00;0.00;0.62;;;;;21.40;1.00;;;;;;2586310;55;1352;-88
2021/09/10 03:12:56;275609.00;0.92;475.99;0.00;0.00;0.62;;;;;21.40;1.00;;;;;;2588538;55;1949;-88
2021/09/10 03:15:22;326349.00;1.09;563.21;0.00;0.00;0.62;;;;;21.50;1.00;;;;;;2586355;55;1085;-88
2021/09/10 03:17:49;116938.00;0.39;202.80;0.00;0.00;0.62;;;;;21.90;1.00;;;;;;2586311;55;1076;-88
2021/09/10 03:20:16;239362.00;0.80;413.65;0.00;0.00;0.62;;;;;21.80;1.00;;;;;;2586366;55;1328;-87
2021/09/10 03:22:43;207019.00;0.69;358.00;0.00;0.00;0.62;;;;;22.10;1.00;;;;;;2588528;55;2019;-88
2021/09/10 03:25:12;192688.00;0.64;333.34;0.00;0.00;0.62;;;;;22.20;1.00;;;;;;2586228;55;1648;-89
2021/09/10 03:27:39;361272.00;1.20;623.24;100858.00;0.34;175.05;;;;;22.30;1.00;;;;;;2586376;55;1121;-87
2021/09/10 03:30:07;105609.00;0.35;183.25;0.00;0.00;0.62;;;;;22.30;1.00;;;;;;2586195;55;1304;-88
2021/09/10 03:32:34;64994.00;0.22;113.11;0.00;0.00;0.62;;;;;22.40;1.00;;;;;;2586323;55;1906;-89
2021/09/10 03:35:01;82368.00;0.27;143.13;0.00;0.00;0.62;;;;;22.50;1.00;;;;;;2586305;55;1147;-88
2021/09/10 03:37:28;204062.00;0.68;352.92;0.00;0.00;0.62;;;;;22.80;1.00;;;;;;2588598;55;967;-87
2021/09/10 03:39:55;166234.00;0.55;287.78;0.00;0.00;0.62;;;;;22.70;1.00;;;;;;2588487;55;1285;-88
2021/09/10 03:42:24;71596.00;0.24;124.52;0.00;0.00;0.62;;;;;22.00;1.00;;;;;;2586389;55;1034;-88
2021/09/10 03:44:51;279033.00;0.93;481.87;0.00;0.00;0.62;;;;;21.90;1.00;;;;;;2586352;55;923;-89
2021/09/10 03:47:17;164232.00;0.55;284.33;0.00;0.00;0.62;;;;;21.50;1.00;;;;;;2586381;55;1046;-88
2021/09/10 03:49:44;183165.00;0.61;316.94;0.00;0.00;0.62;;;;;21.40;1.00;;;;;;2586304;55;1410;-88
2021/09/10 03:52:11;470630.00;1.57;811.27;79689.00;0.27;138.50;;;;;21.50;1.00;;;;;;2588508;55;953;-88
2021/09/10 03:54:38;321188.00;1.07;554.34;12887.00;0.04;22.95;;;;;21.40;1.00;;;;;;2586295;55;1894;-88
2021/09/10 03:57:07;179267.00;0.60;310.23;0.00;0.00;0.62;;;;;21.40;1.00;;;;;;2586313;55;1030;-87
2021/09/10 03:59:35;281060.00;0.94;485.36;0.00;0.00;0.62;;;;;21.70;1.00;;;;;;2586309;55;1310;-88
2021/09/10 04:02:03;221107.00;0.74;382.25;0.00;0.00;0.62;;;;;22.10;1.00;;;;;;2586375;55;1110;-88
2021/09/10 04:04:29;225384.00;0.75;389.61;0.00;0.00;0.62;;;;;22.10;1.00;;;;;;2588533;55;1020;-88
2021/09/10 04:06:56;429126.00;1.43;739.88;24368.00;0.08;42.83;;;;;22.10;1.00;;;;;;2586347;55;1054;-87
2021/09/10 04:09:23;214456.00;0.71;370.80;0.00;0.00;0.62;;;;;21.70;1.00;;;;;;2588514;55;1336;-88
2021/09/10 04:11:50;271273.00;0.90;468.53;0.00;0.00;0.62;;;;;21.40;1.00;;;;;;2586337;55;1104;-88
2021/09/10 04:14:17;154543.00;0.52;267.64;0.00;0.00;0.62;;;;;21.40;1.00;;;;;;2586258;55;1953;-88
2021/09/10 04:16:45;360377.00;1.20;621.70;0.00;0.00;0.62;;;;;21.60;1.00;;;;;;2586283;55;996;-88
2021/09/10 04:19:12;214103.00;0.71;370.20;0.00;0.00;0.62;;;;;22.00;1.00;;;;;;2586257;55;1337;-88
2021/09/10 04:21:39;299920.00;1.00;517.78;49550.00;0.17;86.41;;;;;22.10;1.00;;;;;;2588548;55;928;-88
2021/09/10 04:24:06;165063.00;0.55;285.76;0.00;0.00;0.62;;;;;22.30;1.00;;;;;;2586282;55;964;-88
2021/09/10 04:26:33;350899.00;1.17;605.41;0.00;0.00;0.62;;;;;22.40;1.00;;;;;;2586226;55;1129;-88
2021/09/10 04:29:00;218495.00;0.73;377.75;0.00;0.00;0.62;;;;;22.00;1.00;;;;;;2586186;55;1109;-88
2021/09/10 04:31:27;310712.00;1.04;536.33;0.00;0.00;0.62;;;;;21.80;1.00;;;;;;2586202;55;1381;-88
2021/09/10 04:33:56;214044.00;0.71;370.09;0.00;0.00;0.62;;;;;21.70;1.00;;;;;;2588409;55;1951;-89
2021/09/10 04:36:23;323622.00;1.08;558.52;0.00;0.00;0.62;;;;;21.50;1.00;;;;;;2586235;55;1021;-88
2021/09/10 04:38:50;336555.00;1.12;580.75;0.00;0.00;0.62;;;;;21.50;1.00;;;;;;2588449;55;944;-88
2021/09/10 04:41:17;242773.00;0.81;419.52;19225.00;0.06;33.93;;;;;21.60;1.00;;;;;;2586181;55;1330;-88
2021/09/10 04:43:44;147494.00;0.49;255.49;0.00;0.00;0.62;;;;;21.70;1.00;;;;;;2586071;55;1072;-88
2021/09/10 04:46:11;338465.00;1.13;584.04;0.00;0.00;0.62;;;;;21.80;1.00;;;;;;2586279;55;1025;-88
2021/09/10 04:48:38;252045.00;0.84;435.47;0.00;0.00;0.62;;;;;22.10;1.00;;;;;;2586203;55;1101;-88
2021/09/10 04:51:06;183385.00;0.61;317.32;0.00;0.00;0.62;;;;;22.50;1.00;;;;;;2588394;55;1250;-89
2021/09/10 04:53:33;195776.00;0.65;338.65;0.00;0.00;0.62;;;;;22.80;1.00;;;;;;2586186;55;1957;-88
2021/09/10 04:56:00;134013.00;0.45;232.25;0.00;0.00;0.62;;;;;23.00;1.00;;;;;;2586194;55;1038;-88
2021/09/10 04:58:27;150541.00;0.50;260.74;0.00;0.00;0.62;;;;;23.10;1.00;;;;;;2588364;55;897;-89
2021/09/10 05:00:54;260259.00;0.87;449.59;0.00;0.00;0.62;;;;;23.20;1.00;;;;;;2586102;55;1360;-90
2021/09/10 05:03:21;250253.00;0.83;432.39;27009.00;0.09;47.41;;;;;23.20;1.00;;;;;;2586223;55;1092;-89
2021/09/10 05:05:48;375393.00;1.25;647.51;0.00;0.00;0.62;;;;;23.20;1.00;;;;;;2588404;55;921;-90
2021/09/10 05:08:16;241344.00;0.80;417.06;0.00;0.00;0.62;;;;;23.30;1.00;;;;;;2586217;55;1022;-89
2021/09/10 05:10:43;192911.00;0.64;333.72;0.00;0.00;0.62;;;;;23.20;1.00;;;;;;2588392;55;1250;-90
2021/09/10 05:13:10;252231.00;0.84;435.79;0.00;0.00;0.62;;;;;23.10;1.00;;;;;;2588345;55;1892;-90
2021/09/10 05:15:37;254278.00;0.85;439.31;0.00;0.00;0.62;;;;;22.60;1.00;;;;;;2586187;55;1124;-89
2021/09/10 05:18:04;247602.00;0.83;427.83;0.00;0.00;0.62;;;;;22.20;1.00;;;;;;2588394;55;958;-89
2021/09/10 05:20:31;80214.00;0.27;139.41;0.00;0.00;0.62;;;;;21.10;1.00;;;;;;2588314;55;1317;-88
2021/09/10 05:22:58;191519.00;0.64;331.32;0.00;0.00;0.62;;;;;20.50;1.00;;;;;;2586082;55;1236;-90
2021/09/10 05:25:27;277001.00;0.92;478.38;0.00;0.00;0.62;;;;;20.40;1.00;;;;;;2586076;55;1312;-89
2021/09/10 05:27:54;1211951.00;4.04;2111.84;160746.00;0.54;278.32;;;;;20.60;1.00;;;;;;2587957;55;1042;-90
2021/09/10 05:30:21;791437.00;2.64;1366.19;24990.00;0.08;43.91;;;;;20.90;1.00;;;;;;2586002;55;1346;-89
2021/09/10 05:32:48;747088.00;2.49;1288.99;26697.00;0.09;46.87;;;;;21.50;1.00;;;;;;2588341;55;910;-89
2021/09/10 05:35:15;562825.00;1.88;970.07;50798.00;0.17;88.57;;;;;22.10;1.00;;;;;;2588276;55;1968;-90
2021/09/10 05:37:43;635417.00;2.12;1095.41;68984.00;0.23;120.00;;;;;22.90;1.00;;;;;;2586008;55;1013;-90
2021/09/10 05:40:11;353431.00;1.18;609.76;0.00;0.00;0.62;;;;;23.50;1.00;;;;;;2588229;55;1350;-90
2021/09/10 05:42:39;646822.00;2.16;1115.14;0.00;0.00;0.62;;;;;24.10;1.00;;;;;;2586053;55;1619;-89
2021/09/10 05:45:08;946379.00;3.15;1637.73;28422.00;0.09;49.85;;;;;24.10;1.00;;;;;;2588129;55;1106;-87
2021/09/10 05:47:35;778815.00;2.60;1344.20;35448.00;0.12;62.01;;;;;24.20;1.00;;;;;;2586001;55;1123;-90
2021/09/10 05:50:02;600866.00;2.00;1035.72;18357.00;0.06;32.42;;;;;24.30;1.00;;;;;;2588245;55;1257;-90
2021/09/10 05:52:29;934672.00;3.12;1617.10;42740.00;0.14;74.63;;;;;24.50;1.00;;;;;;2585763;55;1104;-90
2021/09/10 05:54:58;618572.00;2.06;1066.30;7186.00;0.02;13.07;;;;;24.70;1.00;;;;;;2585900;55;1943;-90
2021/09/10 05:57:25;714440.00;2.38;1232.29;65845.00;0.22;114.58;;;;;24.90;1.00;;;;;;2588259;55;1020;-89
2021/09/10 05:59:53;699132.00;2.33;1205.73;37148.00;0.12;64.95;;;;;25.40;1.00;;;;;;2588115;55;1566;-87
2021/09/10 06:02:22;566883.00;1.89;977.07;36613.00;0.12;64.03;;;;;25.50;1.00;;;;;;2588179;55;1732;-88
2021/09/10 06:04:49;613301.00;2.04;1057.19;26438.00;0.09;46.42;;;;;25.30;1.00;;;;;;2586244;55;1089;-87
2021/09/10 06:07:16;814312.00;2.71;1406.10;709.00;0.00;1.85;;;;;25.60;1.00;;;;;;2586212;55;961;-88
2021/09/10 06:09:43;657536.00;2.19;1133.68;28508.00;0.10;50.00;;;;;25.90;1.00;;;;;;2586151;55;1350;-88
2021/09/10 06:12:10;705147.00;2.35;1216.17;21017.00;0.07;37.03;;;;;26.20;1.00;;;;;;2588372;55;1619;-89
2021/09/10 06:14:37;700321.00;2.33;1207.80;21133.00;0.07;37.23;;;;;26.60;1.00;;;;;;2586147;55;1894;-89
2021/09/10 06:17:05;604024.00;2.01;1041.17;14154.00;0.05;25.15;;;;;27.10;1.00;;;;;;2586187;55;1046;-89
2021/09/10 06:19:33;796204.00;2.65;1374.50;10496.00;0.03;18.81;;;;;27.30;1.00;;;;;;2586101;55;1256;-89
2021/09/10 06:22:00;560218.00;1.87;965.58;55467.00;0.18;96.64;;;;;26.70;1.00;;;;;;2588276;55;1490;-90
2021/09/10 06:24:27;835636.00;2.79;1443.35;77874.00;0.26;135.36;;;;;26.40;1.00;;;;;;2588369;55;1671;-89
2021/09/10 06:26:54;657974.00;2.19;1134.43;11230.00;0.04;20.08;;;;;26.70;1.00;;;;;;2586191;55;1121;-89
2021/09/10 06:29:21;859441.00;2.86;1484.99;41244.00;0.14;72.04;;;;;27.10;1.00;;;;;;2586131;55;1222;-89
2021/09/10 06:31:50;545847.00;1.82;940.80;14121.00;0.05;25.09;;;;;28.10;1.00;;;;;;2588379;55;999;-89
2021/09/10 06:34:20;767270.00;2.56;1324.10;62232.00;0.21;108.34;;;;;28.50;1.00;;;;;;2588348;55;1965;-89
2021/09/10 06:36:48;316583.00;1.06;546.42;37996.00;0.13;66.42;;;;;28.40;1.00;;;;;;2586158;55;1005;-89
2021/09/10 06:39:15;289530.00;0.97;499.92;16050.00;0.05;28.43;;;;;28.40;1.00;;;;;;2588240;55;1357;-88
2021/09/10 06:41:42;861956.00;2.87;1489.40;20890.00;0.07;36.81;;;;;29.00;1.00;;;;;;2588256;55;1693;-89
2021/09/10 06:44:09;522878.00;1.74;901.22;15438.00;0.05;27.37;;;;;29.80;1.00;;;;;;2586217;55;1093;-90
2021/09/10 06:46:37;667916.00;2.23;1151.64;68038.00;0.23;118.37;;;;;29.80;1.00;;;;;;2588360;55;946;-91
2021/09/10 06:49:05;641129.00;2.14;1105.29;29739.00;0.10;52.13;;;;;29.80;1.00;;;;;;2588265;55;1668;-90
2021/09/10 06:51:34;888409.00;2.96;1535.77;125893.00;0.42;218.25;;;;;30.90;1.00;;;;;;2588411;55;1159;-90
2021/09/10 06:54:00;639510.00;2.13;1102.49;0.00;0.00;0.62;;;;;30.10;1.00;;;;;;2588467;55;1979;-91
2021/09/10 06:56:27;693153.00;2.31;1195.37;15929.00;0.05;28.22;;;;;30.00;1.00;;;;;;2588405;55;997;-90
2021/09/10 06:58:54;696483.00;2.32;1201.14;21587.00;0.07;38.02;;;;;29.60;1.00;;;;;;2588499;55;1030;-91
2021/09/10 07:01:21;761540.00;2.54;1314.13;14241.00;0.05;25.30;;;;;29.50;1.00;;;;;;2588371;55;1718;-89
2021/09/10 07:03:48;891332.00;2.97;1540.90;9221.00;0.03;16.60;;;;;29.10;1.00;;;;;;2586322;55;1112;-89
2021/09/10 07:06:18;525534.00;1.75;905.80;19733.00;0.07;34.81;;;;;29.50;1.00;;;;;;2586317;55;1109;-90
2021/09/10 07:08:47;135562.00;0.45;234.92;0.00;0.00;0.62;;;;;30.10;1.00;;;;;;2588442;55;1433;-90
2021/09/10 07:11:14;250488.00;0.83;432.79;0.00;0.00;0.62;;;;;31.00;1.00;;;;;;2588444;55;1347;-89
2021/09/10 07:13:41;228147.00;0.76;394.36;57955.00;0.19;100.94;;;;;30.50;1.00;;;;;;2588318;55;1894;-89
2021/09/10 07:16:08;161597.00;0.54;279.79;0.00;0.00;0.62;;;;;31.40;1.00;;;;;;2588441;55;1665;-88
2021/09/10 07:18:40;97335.00;0.32;168.97;0.00;0.00;0.62;;;;;30.50;1.00;;;;;;2588188;55;918;-90
2021/09/10 07:21:07;91483.00;0.30;158.87;0.00;0.00;0.62;;;;;31.40;1.00;;;;;;2588347;55;1403;-89
2021/09/10 07:23:35;320243.00;1.07;552.72;42167.00;0.14;73.64;;;;;31.30;1.00;;;;;;2588385;55;1642;-90
2021/09/10 07:26:05;198790.00;0.66;343.84;0.00;0.00;0.62;;;;;31.90;1.00;;;;;;2588281;55;1540;-91
2021/09/10 07:28:33;103864.00;0.35;180.24;0.00;0.00;0.62;;;;;31.90;1.00;;;;;;2588174;55;1566;-90
2021/09/10 07:31:01;260418.00;0.87;449.87;7739.00;0.03;14.03;;;;;31.00;1.00;;;;;;2588263;55;1438;-90
2021/09/10 07:33:28;213010.00;0.71;368.32;0.00;0.00;0.62;;;;;31.10;1.00;;;;;;2588331;55;1148;-91
2021/09/10 07:35:55;280128.00;0.93;483.76;0.00;0.00;0.62;;;;;31.30;1.00;;;;;;2588316;55;1910;-92
2021/09/10 07:38:22;262345.00;0.87;453.18;0.00;0.00;0.62;;;;;31.50;1.00;;;;;;2588296;55;1428;-91
2021/09/10 07:40:50;223978.00;0.75;387.19;0.00;0.00;0.62;;;;;31.80;1.00;;;;;;2588243;55;1532;-91
2021/09/10 07:43:18;122589.00;0.41;212.55;0.00;0.00;0.62;;;;;32.50;1.00;;;;;;2586180;55;1015;-91
2021/09/10 07:45:48;168756.00;0.56;292.12;0.00;0.00;0.62;;;;;31.90;1.00;;;;;;2588325;55;2151;-91
2021/09/10 07:48:18;217360.00;0.72;375.80;0.00;0.00;0.62;;;;;31.60;1.00;;;;;;2586289;55;989;-90
2021/09/10 07:50:46;188395.00;0.63;325.95;0.00;0.00;0.62;;;;;31.20;1.00;;;;;;2588419;55;1342;-91
2021/09/10 07:53:21;208159.00;0.69;359.97;11297.00;0.04;20.20;;;;;31.90;1.00;;;;;;2588371;55;968;-91
2021/09/10 07:55:48;226350.00;0.75;391.27;79207.00;0.26;137.67;;;;;32.50;1.00;;;;;;2588267;55;1956;-91
2021/09/10 07:58:21;212734.00;0.71;367.84;49029.00;0.16;85.51;;;;;33.70;1.00;;;;;;2588238;55;1669;-91
2021/09/10 08:01:18;216083.00;0.72;373.60;0.00;0.00;0.62;;;;;34.00;1.00;;;;;;2588257;55;1378;-92
2021/09/10 08:03:45;317686.00;1.06;548.32;0.00;0.00;0.62;;;;;33.50;1.00;;;;;;2588276;55;1295;-91
2021/09/10 08:09:29;468744.00;1.56;808.03;70980.00;0.24;123.45;;;;;32.90;1.00;;;;;;2569630;56;1378;-91
2021/09/10 08:11:57;367451.00;1.22;633.86;66260.00;0.22;115.30;;;;;32.20;1.00;;;;;;2572146;55;1564;-92
2021/09/10 08:14:25;428265.00;1.43;738.40;66058.00;0.22;114.95;;;;;32.20;1.00;;;;;;2572107;55;1975;-92
2021/09/10 08:17:10;506886.00;1.69;873.68;58899.00;0.20;102.57;;;;;32.40;1.00;;;;;;2572309;55;965;-91
2021/09/10 08:19:54;1154553.00;3.85;2008.26;88701.00;0.30;154.06;;;;;31.10;1.00;;;;;;2572095;55;1536;-90
2021/09/10 08:22:24;806347.00;2.69;1392.20;21493.00;0.07;37.86;;;;;30.90;1.00;;;;;;2570019;56;1046;-91
2021/09/10 08:24:55;960345.00;3.20;1662.36;84372.00;0.28;146.59;;;;;30.80;1.00;;;;;;2572144;55;986;-91
2021/09/10 08:27:33;623637.00;2.08;1075.05;56184.00;0.19;97.88;;;;;31.10;1.00;;;;;;2572209;55;1241;-91
2021/09/10 08:30:10;557550.00;1.86;960.98;65827.00;0.22;114.55;;;;;30.90;1.00;;;;;;2561770;56;1366;-91
2021/09/10 08:32:43;300530.00;1.00;518.83;0.00;0.00;0.62;;;;;30.70;1.00;;;;;;2561746;56;1660;-91
2021/09/10 08:35:16;290978.00;0.97;502.41;0.00;0.00;0.62;;;;;29.60;1.00;;;;;;2561976;56;1957;-91
2021/09/10 08:37:49;291839.00;0.97;503.89;0.00;0.00;0.62;;;;;29.20;1.00;;;;;;2561868;56;1418;-90
2021/09/10 08:40:25;296509.00;0.99;511.92;8658.00;0.03;15.62;;;;;29.50;1.00;;;;;;2561884;56;1366;-90
2021/09/10 08:45:37;185882.00;0.62;321.62;0.00;0.00;0.62;;;;;30.10;1.00;;;;;;2544948;56;964;-91
2021/09/10 08:48:17;309283.00;1.03;533.88;0.00;0.00;0.62;;;;;30.60;1.00;;;;;;2561745;56;1526;-91
2021/09/10 08:50:57;487527.00;1.63;840.35;55130.00;0.18;96.06;;;;;30.90;1.00;;;;;;2566946;56;1659;-91
2021/09/10 08:53:30;241689.00;0.81;417.66;0.00;0.00;0.62;;;;;30.70;1.00;;;;;;2566923;56;1086;-90
2021/09/10 08:55:57;261094.00;0.87;451.03;58435.00;0.19;101.77;;;;;30.40;1.00;;;;;;2567136;56;1902;-92
2021/09/10 08:58:26;233583.00;0.78;403.71;0.00;0.00;0.62;;;;;30.80;1.00;;;;;;2567090;56;1601;-91
2021/09/10 09:00:58;146529.00;0.49;253.83;0.00;0.00;0.62;;;;;30.60;1.00;;;;;;2567047;56;1371;-92
2021/09/10 09:03:28;196946.00;0.66;340.67;0.00;0.00;0.62;;;;;30.60;1.00;;;;;;2566911;56;1679;-91
2021/09/10 09:05:58;265304.00;0.88;458.27;0.00;0.00;0.62;;;;;31.20;1.00;;;;;;2564913;56;1116;-90
2021/09/10 09:08:29;199286.00;0.66;344.69;0.00;0.00;0.62;;;;;31.20;1.00;;;;;;2567220;56;1049;-90
2021/09/10 09:11:07;239540.00;0.80;413.96;82502.00;0.28;143.36;;;;;31.00;1.00;;;;;;2566956;56;1590;-91
2021/09/10 09:16:52;439598.00;1.47;757.89;0.00;0.00;0.62;;;;;30.10;1.00;;;;;;2558395;56;1010;-91
2021/09/10 11:57:45;401386.00;1.34;692.19;74068.00;0.25;128.79;;;;;28.00;1.00;;;;;;2581008;55;682;-89
2021/09/10 12:00:25;758063.00;2.53;1308.08;18239.00;0.06;32.22;;;;;27.70;1.00;;;;;;2580859;55;1525;-89
2021/09/10 12:02:56;523961.00;1.75;903.09;26965.00;0.09;47.33;;;;;27.80;1.00;;;;;;2575904;55;1130;-88
2021/09/10 12:05:23;647319.00;2.16;1116.00;71806.00;0.24;124.88;;;;;28.50;1.00;;;;;;2578094;55;949;-89
2021/09/10 12:07:51;419546.00;1.40;723.41;23786.00;0.08;41.83;;;;;28.90;1.00;;;;;;2577974;55;1430;-88
2021/09/10 12:10:28;616620.00;2.06;1062.93;113978.00;0.38;197.69;;;;;28.80;1.00;;;;;;2577847;55;1585;-88
2021/09/10 12:13:10;713274.00;2.38;1230.26;82004.00;0.27;142.50;;;;;28.80;1.00;;;;;;2575786;55;969;-89
2021/09/10 12:15:37;569245.00;1.90;981.14;36443.00;0.12;63.73;;;;;28.90;1.00;;;;;;2577976;55;1940;-89
2021/09/10 12:18:09;488502.00;1.63;842.03;104289.00;0.35;180.97;;;;;29.20;1.00;;;;;;2577976;55;964;-89
2021/09/10 12:20:39;567565.00;1.89;978.25;75684.00;0.25;131.58;;;;;29.80;1.00;;;;;;2575757;55;1343;-89
2021/09/10 12:23:07;805430.00;2.68;1390.60;187760.00;0.63;324.85;;;;;30.10;1.00;;;;;;2577846;55;1544;-89
2021/09/10 12:25:52;385847.00;1.29;665.48;126815.00;0.42;219.84;;;;;30.10;1.00;;;;;;2575777;55;1094;-89
2021/09/10 12:28:41;391867.00;1.31;675.82;60850.00;0.20;105.95;;;;;30.00;1.00;;;;;;2575791;55;1085;-89
2021/09/10 12:31:11;425545.00;1.42;733.72;13470.00;0.04;23.96;;;;;29.70;1.00;;;;;;2577881;55;1538;-88
2021/09/10 12:33:42;560846.00;1.87;966.66;77949.00;0.26;135.49;;;;;29.60;1.00;;;;;;2577749;55;1567;-89
2021/09/10 12:36:11;455270.00;1.52;784.85;98813.00;0.33;171.52;;;;;29.20;1.00;;;;;;2577954;55;1959;-89
2021/09/10 12:38:40;422173.00;1.41;727.93;56604.00;0.19;98.61;;;;;29.00;1.00;;;;;;2577727;55;1120;-88